Forside
METAR-TAF:

METAR-TAF

Lufthavne :

Land's End, England

Breddekreds: 50-06-10N, længdekreds: 005-40-14W, højde: 122 m

Aktuelle vejr

Denne rapport blev lavet for 26 minutter siden, kl. 12:20 UTC
Vind 13 kt fra øst
Temperatur 10°C
Fugtighed 57%
Tryk 1030 hPa
Sigt 10 km eller mere
Nogle få skyer i en højde af 2000 ft

METAR: EGHC 311220Z 08013KT 9999 FEW020 10/02 Q1030

Tid: 13:46 (12:46 UTC)

Vejrudsigter

Denne rapport blev lavet for 1 time og 39 minutter siden, kl. 11:07 UTC
Foreløbig gælder fra 31 på 12 UTC til 31 på 16 UTC
Vind 15 kt fra øst
Sigt 10 km eller mere
Nogle få skyer i en højde af 3000 ft

TAF: EGHC 311107Z 3112/3116 08015KT 9999 FEW030

Vejrobservationer og prognoser fra mere end 4000 lufthavne (METAR og TAF).

De gule og røde prikker repræsenterer de meteorologiske stationer.

Flyt musen over at se navnet på stationen.

Så klik over at se vejr observationer og prognoser.

At skifte det kort: Klik på de grønne knapper med et sort kors for at zoome ind; på den grønne knap med en bindestreg for at zoome ud; eller på de grønne pile for tilstødende kort.


METAR-TAF: